createdAt,value
2022-11-09T03:59:15.743Z,56.90
2022-11-09T04:00:15.646Z,56.32
2022-11-09T04:01:14.727Z,56.32
2022-11-09T04:02:15.752Z,56.58
2022-11-09T04:03:14.581Z,56.32
2022-11-09T04:04:16.296Z,56.60
2022-11-09T04:05:16.259Z,56.41
2022-11-09T04:06:16.367Z,56.32
2022-11-09T04:07:16.284Z,56.60
2022-11-09T04:08:16.209Z,56.70
2022-11-09T04:09:16.269Z,56.60
2022-11-09T04:10:16.209Z,56.60
2022-11-09T04:11:16.198Z,56.70
2022-11-09T04:12:16.254Z,56.70
2022-11-09T04:13:16.346Z,56.70
2022-11-09T04:14:16.552Z,56.80
2022-11-09T04:15:16.244Z,57.09
2022-11-09T04:16:16.218Z,56.90
2022-11-09T04:17:16.204Z,56.99
2022-11-09T04:18:16.216Z,57.09
2022-11-09T04:19:15.561Z,56.99
2022-11-09T04:20:15.488Z,57.18
2022-11-09T04:21:19.163Z,57.28
2022-11-09T04:22:16.206Z,57.09
2022-11-09T04:23:16.447Z,57.09
2022-11-09T04:24:16.301Z,57.28
2022-11-09T04:25:16.295Z,57.37
2022-11-09T04:26:16.405Z,57.37
2022-11-09T04:27:14.492Z,57.37
2022-11-09T04:28:17.220Z,57.37
2022-11-09T04:29:15.539Z,57.37
2022-11-09T04:30:16.720Z,57.28
2022-11-09T04:31:14.481Z,57.18
2022-11-09T04:32:16.228Z,57.18
2022-11-09T04:33:16.980Z,57.37
2022-11-09T04:34:14.440Z,57.28
2022-11-09T04:35:15.739Z,57.18
2022-11-09T04:36:15.460Z,57.37
2022-11-09T04:37:15.420Z,57.47
2022-11-09T04:38:15.462Z,57.28
2022-11-09T04:39:15.425Z,57.40
2022-11-09T04:40:15.728Z,57.31
2022-11-09T04:41:16.751Z,57.12
2022-11-09T04:42:14.444Z,57.12
2022-11-09T04:43:16.491Z,57.12
2022-11-09T04:44:15.411Z,57.40
2022-11-09T04:45:16.235Z,57.40
2022-11-09T04:46:16.225Z,57.31
2022-11-09T04:47:14.425Z,57.12
2022-11-09T04:48:16.229Z,57.21
2022-11-09T04:49:15.373Z,57.31
2022-11-09T04:50:16.243Z,57.21
2022-11-09T04:51:16.586Z,56.92
2022-11-09T04:52:16.224Z,57.12
2022-11-09T04:53:15.743Z,57.02
2022-11-09T04:54:15.366Z,57.21
2022-11-09T04:55:16.227Z,57.12
2022-11-09T04:56:15.741Z,56.92
2022-11-09T04:57:16.354Z,57.12
2022-11-09T04:58:15.348Z,57.02
2022-11-09T04:59:15.343Z,57.12
2022-11-09T05:00:15.332Z,56.92
2022-11-09T05:01:16.756Z,57.12
2022-11-09T05:02:14.365Z,57.12
2022-11-09T05:03:14.506Z,56.92
2022-11-09T05:04:14.460Z,56.92
2022-11-09T05:05:14.466Z,57.12
2022-11-09T05:06:15.809Z,57.02
2022-11-09T05:07:16.323Z,56.92
2022-11-09T05:08:16.280Z,57.02
2022-11-09T05:09:15.330Z,57.12
2022-11-09T05:10:16.257Z,56.82
2022-11-09T05:11:16.330Z,56.92
2022-11-09T05:12:15.300Z,56.92
2022-11-09T05:13:16.329Z,57.02
2022-11-09T05:14:16.265Z,57.02
2022-11-09T05:15:15.283Z,56.92
2022-11-09T05:16:16.289Z,56.73
2022-11-09T05:17:16.258Z,56.82
2022-11-09T05:18:15.276Z,56.73
2022-11-09T05:19:16.260Z,56.73
2022-11-09T05:20:15.301Z,56.92
2022-11-09T05:21:15.805Z,56.82
2022-11-09T05:22:16.026Z,56.92
2022-11-09T05:23:15.764Z,56.73
2022-11-09T05:24:15.760Z,56.92
2022-11-09T05:25:15.770Z,56.82
2022-11-09T05:26:15.845Z,56.73
2022-11-09T05:27:15.829Z,56.63
2022-11-09T05:28:15.760Z,56.63
2022-11-09T05:29:15.769Z,56.73
2022-11-09T05:30:15.791Z,56.92
2022-11-09T05:31:15.774Z,56.82
2022-11-09T05:32:15.771Z,56.54
2022-11-09T05:33:15.792Z,56.54
2022-11-09T05:34:15.766Z,56.73
2022-11-09T05:35:15.784Z,56.54
2022-11-09T05:36:14.379Z,56.92
2022-11-09T05:37:15.778Z,56.54
2022-11-09T05:38:16.292Z,56.82
2022-11-09T05:39:15.833Z,56.92
2022-11-09T05:40:15.768Z,56.82
2022-11-09T05:41:14.203Z,56.82
2022-11-09T05:42:15.769Z,56.92
2022-11-09T05:43:15.871Z,57.05
2022-11-09T05:44:15.814Z,56.44
2022-11-09T05:45:40.865Z,56.73
2022-11-09T05:46:14.191Z,56.73
2022-11-09T05:47:15.785Z,56.44
2022-11-09T05:48:15.797Z,56.85
2022-11-09T05:49:15.776Z,56.63
2022-11-09T05:50:16.795Z,56.82
2022-11-09T05:51:15.789Z,56.82
2022-11-09T05:52:14.833Z,56.95
2022-11-09T05:53:15.900Z,56.92
2022-11-09T05:54:14.170Z,56.66
2022-11-09T05:55:14.165Z,56.85
2022-11-09T05:56:14.444Z,56.92
2022-11-09T05:57:14.188Z,56.82
2022-11-09T05:58:15.316Z,57.05
2022-11-09T05:59:14.230Z,56.73
2022-11-09T06:00:15.837Z,56.76
2022-11-09T06:01:14.160Z,56.54
2022-11-09T06:02:15.396Z,56.66
2022-11-09T06:03:15.348Z,56.66
2022-11-09T06:04:14.248Z,56.73
2022-11-09T06:05:16.958Z,56.73
2022-11-09T06:06:14.152Z,56.66
2022-11-09T06:07:15.987Z,56.54
2022-11-09T06:08:14.116Z,56.63
2022-11-09T06:09:15.121Z,56.63
2022-11-09T06:10:15.121Z,56.73
2022-11-09T06:11:21.757Z,56.66
2022-11-09T06:12:16.307Z,56.76
2022-11-09T06:13:16.051Z,56.57
2022-11-09T06:14:15.085Z,56.63
2022-11-09T06:15:15.086Z,56.76
2022-11-09T06:16:15.833Z,56.73
2022-11-09T06:17:15.102Z,56.66
2022-11-09T06:18:17.338Z,56.66
2022-11-09T06:19:15.059Z,56.76
2022-11-09T06:20:15.914Z,56.82
2022-11-09T06:21:15.840Z,56.63
2022-11-09T06:22:15.850Z,56.66
2022-11-09T06:23:15.080Z,56.76
2022-11-09T06:24:15.827Z,56.66
2022-11-09T06:25:15.044Z,56.63
2022-11-09T06:26:15.862Z,56.54
2022-11-09T06:27:16.091Z,56.82
2022-11-09T06:28:15.861Z,56.73
2022-11-09T06:29:15.837Z,56.73
2022-11-09T06:30:15.178Z,56.76
2022-11-09T06:31:15.066Z,56.76
2022-11-09T06:32:16.900Z,56.82
2022-11-09T06:33:15.076Z,56.63
2022-11-09T06:34:14.038Z,56.66
2022-11-09T06:35:15.126Z,56.73
2022-11-09T06:36:13.999Z,56.76
2022-11-09T06:37:15.352Z,56.66
2022-11-09T06:38:15.036Z,56.54
2022-11-09T06:39:15.332Z,56.73
2022-11-09T06:40:14.002Z,56.73
2022-11-09T06:41:15.958Z,56.85
2022-11-09T06:42:16.818Z,56.57
2022-11-09T06:43:17.012Z,56.44
2022-11-09T06:44:15.844Z,56.82
2022-11-09T06:45:14.949Z,56.47
2022-11-09T06:46:14.073Z,56.47
2022-11-09T06:47:22.417Z,56.82
2022-11-09T06:48:17.090Z,56.57
2022-11-09T06:49:20.834Z,56.37
2022-11-09T06:50:13.964Z,56.47
2022-11-09T06:51:16.104Z,56.66
2022-11-09T06:52:15.979Z,56.44
2022-11-09T06:53:14.898Z,56.76
2022-11-09T06:54:13.993Z,56.54
2022-11-09T06:55:14.014Z,56.27
2022-11-09T06:56:13.939Z,56.37
2022-11-09T06:57:22.906Z,56.66
2022-11-09T06:58:19.436Z,56.47
2022-11-09T06:59:14.256Z,56.47
2022-11-09T07:00:14.871Z,56.44
2022-11-09T07:01:17.270Z,56.54
2022-11-09T07:02:21.715Z,56.54
2022-11-09T07:03:14.329Z,56.47
2022-11-09T07:04:17.006Z,56.54
2022-11-09T07:05:13.957Z,56.57
2022-11-09T07:06:13.939Z,56.44
2022-11-09T07:07:16.999Z,56.44
2022-11-09T07:08:14.267Z,56.44
2022-11-09T07:09:14.801Z,56.66
2022-11-09T07:10:13.887Z,56.47
2022-11-09T07:11:14.022Z,56.85
2022-11-09T07:12:23.058Z,56.47
2022-11-09T07:13:15.959Z,56.66
2022-11-09T07:14:23.011Z,56.85
2022-11-09T07:16:17.187Z,56.66
2022-11-09T07:17:13.865Z,56.47
2022-11-09T07:18:15.853Z,56.66
2022-11-09T07:20:15.664Z,56.76
2022-11-09T07:21:16.305Z,56.44
2022-11-09T07:22:19.810Z,56.47
2022-11-09T07:23:18.987Z,56.27
2022-11-09T07:24:13.915Z,56.76
2022-11-09T07:25:15.419Z,56.37
2022-11-09T07:26:15.704Z,56.35
2022-11-09T07:27:15.788Z,56.85
2022-11-09T07:28:15.475Z,56.66
2022-11-09T07:29:15.400Z,56.76
2022-11-09T07:30:15.399Z,56.37
2022-11-09T07:31:15.423Z,56.66
2022-11-09T07:32:13.931Z,56.47
2022-11-09T07:33:15.657Z,56.47
2022-11-09T07:34:15.419Z,56.57
2022-11-09T07:35:15.392Z,56.47
2022-11-09T07:36:19.753Z,56.57
2022-11-09T07:37:13.919Z,56.57
2022-11-09T07:38:15.327Z,56.37
2022-11-09T07:39:15.512Z,56.47
2022-11-09T07:40:13.859Z,56.66
2022-11-09T07:41:13.869Z,56.57
2022-11-09T07:42:16.441Z,56.37
2022-11-09T07:43:20.208Z,56.47
2022-11-09T07:44:18.898Z,56.66
2022-11-09T07:46:50.026Z,56.37
2022-11-09T07:47:48.165Z,56.47
2022-11-09T07:48:50.482Z,56.47
2022-11-09T07:49:49.626Z,56.27
2022-11-09T07:50:56.707Z,56.57
2022-11-09T07:51:48.129Z,56.27
2022-11-09T07:52:48.150Z,56.76
2022-11-09T07:53:48.112Z,56.37
2022-11-09T07:54:52.284Z,56.47
2022-11-09T07:55:48.160Z,56.37
2022-11-09T07:56:48.109Z,56.57
2022-11-09T07:57:48.119Z,56.47
2022-11-09T07:58:50.156Z,56.57
2022-11-09T07:59:51.005Z,56.57
2022-11-09T08:00:48.098Z,56.09
2022-11-09T08:01:48.141Z,56.18
2022-11-09T08:02:49.482Z,56.37
2022-11-09T08:03:49.994Z,56.57
2022-11-09T08:04:49.983Z,56.37
2022-11-09T08:05:50.072Z,56.37
2022-11-09T08:06:50.044Z,56.37
2022-11-09T08:07:48.063Z,56.40
2022-11-09T08:08:50.040Z,56.57
2022-11-09T08:09:49.988Z,56.37
2022-11-09T08:10:48.063Z,56.30
2022-11-09T08:11:52.020Z,56.69
2022-11-09T08:12:49.473Z,56.49
2022-11-09T08:13:48.083Z,56.40
2022-11-09T08:14:50.013Z,56.88
2022-11-09T08:15:48.033Z,56.88
2022-11-09T08:16:50.052Z,56.98
2022-11-09T08:17:48.300Z,56.69
2022-11-09T08:18:50.317Z,56.98
2022-11-09T08:19:50.048Z,56.69
2022-11-09T08:20:50.026Z,56.49
2022-11-09T08:21:48.013Z,56.59
2022-11-09T08:22:48.025Z,56.40
2022-11-09T08:23:48.030Z,56.43
2022-11-09T08:24:49.504Z,56.14
2022-11-09T08:25:48.042Z,56.62
2022-11-09T08:26:48.032Z,56.72
2022-11-09T08:27:48.113Z,56.62
2022-11-09T08:28:47.998Z,56.62
2022-11-09T08:29:48.057Z,56.24
2022-11-09T08:30:51.147Z,56.04
2022-11-09T08:32:00.109Z,56.33
2022-11-09T08:33:06.604Z,55.94
2022-11-09T08:33:48.193Z,56.04
2022-11-09T08:34:49.548Z,56.14
2022-11-09T08:35:53.150Z,56.14
2022-11-09T08:36:51.154Z,55.66
2022-11-09T08:37:49.843Z,55.94
2022-11-09T08:38:48.101Z,56.04
2022-11-09T08:39:48.084Z,56.14
2022-11-09T08:40:47.988Z,56.33
2022-11-09T08:41:51.232Z,56.07
2022-11-09T08:42:48.060Z,55.88
2022-11-09T08:43:49.609Z,55.88
2022-11-09T08:44:48.434Z,56.07
2022-11-09T08:45:49.772Z,55.88
2022-11-09T08:46:47.970Z,56.07
2022-11-09T08:47:48.047Z,55.88
2022-11-09T08:48:48.168Z,56.36
2022-11-09T08:49:48.028Z,56.26
2022-11-09T08:50:49.231Z,55.78
2022-11-09T08:51:55.095Z,56.26
2022-11-09T08:52:59.180Z,55.88
2022-11-09T08:53:48.062Z,56.36
2022-11-09T08:55:50.578Z,55.98
2022-11-09T08:57:48.712Z,55.42
2022-11-09T08:58:48.125Z,55.42
2022-11-09T08:59:50.743Z,55.81
2022-11-09T09:00:47.962Z,55.62
2022-11-09T09:01:48.011Z,55.62
2022-11-09T09:02:48.429Z,55.52
2022-11-09T09:03:50.821Z,55.90
2022-11-09T09:04:49.146Z,55.90
2022-11-09T09:05:47.954Z,55.62
2022-11-09T09:06:48.076Z,56.00
2022-11-09T09:07:47.948Z,55.81
2022-11-09T09:08:47.914Z,56.13
2022-11-09T09:09:49.564Z,56.03
2022-11-09T09:10:49.552Z,55.93
2022-11-09T09:11:47.902Z,55.65
2022-11-09T09:12:47.904Z,56.03
2022-11-09T09:13:47.902Z,55.65
2022-11-09T09:14:48.008Z,56.13
2022-11-09T09:15:49.641Z,55.55
2022-11-09T09:16:49.535Z,55.45
2022-11-09T09:17:48.103Z,55.93
2022-11-09T09:18:53.069Z,55.83
2022-11-09T09:19:50.245Z,55.83
2022-11-09T09:20:49.602Z,55.83
2022-11-09T09:21:48.556Z,55.83
2022-11-09T09:22:48.968Z,55.83
2022-11-09T09:23:49.575Z,55.93
2022-11-09T09:24:49.538Z,55.96
2022-11-09T09:25:49.554Z,55.45
2022-11-09T09:26:53.593Z,55.87
2022-11-09T09:28:49.557Z,55.77
2022-11-09T09:29:49.581Z,55.96
2022-11-09T09:30:50.596Z,56.05
2022-11-09T09:31:48.012Z,55.87
2022-11-09T09:32:49.673Z,55.57
2022-11-09T09:33:47.992Z,55.67
2022-11-09T09:34:47.891Z,55.87
2022-11-09T09:35:50.087Z,56.05
2022-11-09T09:36:48.792Z,55.77
2022-11-09T09:37:47.922Z,55.77
2022-11-09T09:38:49.581Z,55.70
2022-11-09T09:39:48.635Z,55.79
2022-11-09T09:40:47.919Z,55.70
2022-11-09T09:41:49.039Z,55.79
2022-11-09T09:42:51.516Z,55.02
2022-11-09T09:43:47.955Z,54.93
2022-11-09T09:44:49.611Z,55.70
2022-11-09T09:45:48.099Z,55.02
2022-11-09T09:46:49.593Z,55.11
2022-11-09T09:47:49.695Z,55.70
2022-11-09T09:48:47.893Z,55.51
2022-11-09T09:49:49.613Z,55.51
2022-11-09T09:50:49.673Z,55.31
2022-11-09T09:51:54.102Z,55.79
2022-11-09T09:53:10.482Z,55.60
2022-11-09T09:53:49.604Z,55.41
2022-11-09T09:54:48.040Z,55.51
2022-11-09T09:56:11.693Z,55.21
2022-11-09T09:56:56.094Z,55.89
2022-11-09T09:57:49.976Z,56.09
2022-11-09T09:58:55.587Z,55.11
2022-11-09T09:59:49.183Z,55.51
2022-11-09T10:00:49.528Z,55.24
2022-11-09T10:01:47.939Z,55.15
2022-11-09T10:13:27.435Z,54.95
2022-11-09T10:14:26.936Z,54.66
2022-11-09T10:15:32.462Z,54.95
2022-11-09T10:16:27.411Z,54.95
2022-11-09T10:17:26.911Z,54.66
2022-11-09T10:18:27.523Z,54.66
2022-11-09T10:19:28.412Z,55.24
2022-11-09T10:20:25.918Z,55.24
2022-11-09T10:21:27.404Z,54.95
2022-11-09T10:22:27.363Z,54.63
2022-11-09T10:23:28.988Z,54.57
2022-11-09T10:24:26.399Z,54.75
2022-11-09T10:25:57.883Z,55.24
2022-11-09T10:26:26.218Z,54.95
2022-11-09T10:27:31.260Z,55.02
2022-11-09T10:28:26.691Z,55.21
2022-11-09T10:29:28.509Z,55.21
2022-11-09T10:30:25.921Z,55.02
2022-11-09T10:31:25.932Z,55.34
2022-11-09T10:32:26.206Z,55.21
2022-11-09T10:33:28.504Z,55.31
2022-11-09T10:34:25.888Z,54.83
2022-11-09T10:35:25.857Z,55.21
2022-11-09T10:36:25.877Z,55.21
2022-11-09T10:37:25.878Z,54.83
2022-11-09T10:38:26.018Z,55.21
2022-11-09T10:39:26.135Z,54.93
2022-11-09T10:40:25.849Z,55.31
2022-11-09T10:41:25.891Z,54.93
2022-11-09T10:42:25.901Z,55.21
2022-11-09T10:43:26.948Z,55.21
2022-11-09T10:44:25.858Z,55.21
2022-11-09T10:45:29.880Z,54.93
2022-11-09T10:46:26.225Z,55.21
2022-11-09T10:47:26.203Z,55.21
2022-11-09T10:48:27.466Z,55.21
2022-11-09T10:49:26.960Z,54.93
2022-11-09T10:50:25.846Z,55.21
2022-11-09T10:51:25.860Z,54.83
2022-11-09T10:52:25.847Z,55.11
2022-11-09T10:53:29.391Z,55.11
2022-11-09T10:54:27.629Z,54.93
2022-11-09T10:55:27.573Z,55.21
2022-11-09T10:56:27.173Z,54.93
2022-11-09T10:57:25.854Z,54.83
2022-11-09T10:58:27.536Z,54.85
2022-11-09T10:59:27.489Z,54.95
2022-11-09T11:00:27.531Z,55.24
2022-11-09T11:01:27.635Z,54.85
2022-11-09T11:02:27.643Z,55.15
2022-11-09T11:03:25.994Z,54.85
2022-11-09T11:04:27.715Z,54.75
2022-11-09T11:05:27.497Z,54.66
2022-11-09T11:06:27.562Z,54.85
2022-11-09T11:07:27.734Z,54.47
2022-11-09T11:08:26.943Z,55.05
2022-11-09T11:09:27.521Z,54.95
2022-11-09T11:10:28.447Z,54.95
2022-11-09T11:11:36.366Z,55.05
2022-11-09T11:12:27.449Z,54.75
2022-11-09T11:13:27.637Z,54.85
2022-11-09T11:14:27.497Z,54.57
2022-11-09T11:15:25.816Z,54.85
2022-11-09T11:16:25.817Z,55.05
2022-11-09T11:17:25.866Z,54.47
2022-11-09T11:18:28.472Z,54.66
2022-11-09T11:19:25.813Z,54.83
2022-11-09T11:20:25.881Z,54.75
2022-11-09T11:21:27.547Z,54.35
2022-11-09T11:22:25.809Z,54.35
2022-11-09T11:23:26.109Z,54.27
2022-11-09T11:24:27.475Z,54.35
2022-11-09T11:25:25.805Z,54.95
2022-11-09T11:26:25.808Z,54.15
2022-11-09T11:27:25.850Z,54.57
2022-11-09T11:28:25.804Z,54.63
2022-11-09T11:29:27.486Z,54.66
2022-11-09T11:30:27.489Z,54.27
2022-11-09T11:31:27.729Z,54.83
2022-11-09T11:32:25.975Z,54.27
2022-11-09T11:33:27.615Z,54.75
2022-11-09T11:34:57.979Z,54.27
2022-11-09T11:35:27.532Z,54.83
2022-11-09T11:36:27.668Z,54.83
2022-11-09T11:37:32.050Z,54.83
2022-11-09T11:38:27.190Z,54.83
2022-11-09T11:39:29.798Z,54.15
2022-11-09T11:40:29.512Z,54.95
2022-11-09T11:41:28.007Z,54.53
2022-11-09T11:42:27.594Z,54.25
2022-11-09T11:43:25.965Z,54.53
2022-11-09T11:44:28.558Z,54.93
2022-11-09T11:45:40.500Z,54.53
2022-11-09T11:46:25.780Z,54.35
2022-11-09T11:47:25.788Z,53.86
2022-11-09T11:48:25.786Z,54.63
2022-11-09T11:49:29.535Z,54.37
2022-11-09T11:50:28.568Z,54.47
2022-11-09T11:51:25.809Z,54.63
2022-11-09T11:52:25.786Z,54.08
2022-11-09T11:53:25.789Z,54.37
2022-11-09T11:54:32.035Z,54.47
2022-11-09T11:55:25.873Z,54.47
2022-11-09T11:56:25.769Z,54.47
2022-11-09T11:57:28.678Z,54.47
2022-11-09T11:58:27.506Z,54.08
2022-11-09T11:59:25.800Z,54.47
2022-11-09T12:00:25.778Z,54.37
2022-11-09T12:01:25.802Z,54.08
2022-11-09T12:02:27.587Z,54.27
2022-11-09T12:03:27.532Z,54.53
2022-11-09T12:04:32.292Z,54.63
2022-11-09T12:05:25.828Z,53.89
2022-11-09T12:06:28.634Z,54.73
2022-11-09T12:07:27.699Z,54.37
2022-11-09T12:08:28.461Z,54.08
2022-11-09T12:09:26.603Z,53.89
2022-11-09T12:10:28.140Z,54.17
2022-11-09T12:12:27.490Z,53.59
2022-11-09T12:13:33.473Z,54.27
2022-11-09T12:14:48.525Z,54.21
2022-11-09T12:15:56.638Z,53.91
2022-11-09T12:16:42.075Z,53.53
2022-11-09T12:17:29.273Z,54.11
2022-11-09T12:18:27.711Z,54.30
2022-11-09T12:19:29.317Z,54.11
2022-11-09T12:20:26.279Z,54.01
2022-11-09T12:21:26.180Z,53.63
2022-11-09T12:22:25.909Z,53.91
2022-11-09T12:23:27.582Z,54.01
2022-11-09T12:24:25.761Z,54.49
2022-11-09T12:25:25.783Z,54.01
2022-11-09T12:26:27.532Z,54.17
2022-11-09T12:27:32.077Z,53.41
2022-11-09T12:28:25.773Z,53.31
2022-11-09T12:29:40.600Z,54.27
2022-11-09T12:30:25.996Z,53.63
2022-11-09T12:31:25.743Z,53.36
2022-11-09T12:32:27.624Z,52.58
2022-11-09T12:33:33.250Z,53.36
2022-11-09T12:34:27.602Z,53.09
2022-11-09T12:35:28.575Z,52.90
2022-11-09T12:36:27.624Z,52.90
2022-11-09T12:37:26.868Z,52.34
2022-11-09T12:38:27.543Z,52.44
2022-11-09T12:39:27.545Z,52.93
2022-11-09T12:40:27.569Z,52.54
2022-11-09T12:41:27.608Z,53.09
2022-11-09T12:42:27.548Z,52.93
2022-11-09T12:43:27.601Z,52.83
2022-11-09T12:44:27.586Z,53.02
2022-11-09T12:45:27.587Z,52.34
2022-11-09T12:46:28.546Z,52.18
2022-11-09T12:47:27.109Z,52.37
2022-11-09T12:48:27.583Z,52.56
2022-11-09T12:49:26.867Z,52.47
2022-11-09T12:50:27.583Z,51.98
2022-11-09T12:51:27.780Z,52.56
2022-11-09T12:52:27.570Z,52.66
2022-11-09T12:53:27.589Z,52.47
2022-11-09T12:54:27.572Z,52.37
2022-11-09T12:55:27.561Z,52.66
2022-11-09T12:56:28.265Z,52.11
2022-11-09T12:57:25.754Z,52.11
2022-11-09T12:58:25.754Z,51.91
2022-11-09T12:59:27.621Z,51.84
2022-11-09T13:00:25.746Z,51.65
2022-11-09T13:01:25.898Z,51.16
2022-11-09T13:02:25.816Z,51.45
2022-11-09T13:03:26.793Z,51.06
2022-11-09T13:04:27.571Z,51.65
2022-11-09T13:05:27.127Z,51.75
2022-11-09T13:06:25.749Z,51.75
2022-11-09T13:07:25.789Z,51.65
2022-11-09T13:08:27.563Z,51.75
2022-11-09T13:09:39.847Z,51.84
2022-11-09T13:10:27.637Z,51.55
2022-11-09T13:11:25.756Z,51.84
2022-11-09T13:12:28.570Z,51.33
2022-11-09T13:13:27.587Z,51.81
2022-11-09T13:14:25.768Z,51.43
2022-11-09T13:15:27.572Z,51.79
2022-11-09T13:16:25.845Z,51.79
2022-11-09T13:17:25.773Z,52.08
2022-11-09T13:18:27.591Z,51.69
2022-11-09T13:19:25.957Z,51.96
2022-11-09T13:20:52.780Z,51.96
2022-11-09T13:21:25.762Z,51.86
2022-11-09T13:22:27.617Z,51.76
2022-11-09T13:23:47.695Z,51.76
2022-11-09T13:24:25.930Z,52.71
2022-11-09T13:25:27.633Z,52.61
2022-11-09T13:26:25.763Z,52.80
2022-11-09T13:27:27.632Z,51.84
2022-11-09T13:28:25.776Z,51.84
2022-11-09T13:29:25.762Z,52.12
2022-11-09T13:30:25.783Z,52.32
2022-11-09T13:31:27.637Z,52.32
2022-11-09T13:32:25.800Z,52.61
2022-11-09T13:33:25.776Z,52.58
2022-11-09T13:34:25.759Z,52.49
2022-11-09T13:35:25.787Z,52.29
2022-11-09T13:36:27.631Z,52.29
2022-11-09T13:37:25.807Z,52.39
2022-11-09T13:38:27.697Z,52.46
2022-11-09T13:39:25.766Z,52.75
2022-11-09T13:40:27.623Z,52.95
2022-11-09T13:41:28.168Z,52.46
2022-11-09T13:42:25.770Z,52.66
2022-11-09T13:43:27.644Z,52.63
2022-11-09T13:44:25.773Z,52.82
2022-11-09T13:45:28.642Z,52.44
2022-11-09T13:46:28.125Z,52.53
2022-11-09T13:47:26.750Z,52.63
2022-11-09T13:48:27.738Z,52.73
2022-11-09T13:49:27.603Z,52.61
2022-11-09T13:50:27.597Z,52.70
2022-11-09T13:51:27.640Z,52.80
2022-11-09T13:52:27.642Z,52.70
2022-11-09T13:53:27.674Z,53.09
2022-11-09T13:54:27.628Z,52.61
2022-11-09T13:55:27.686Z,52.87
2022-11-09T13:56:27.815Z,52.80
2022-11-09T13:57:27.658Z,52.67
2022-11-09T13:58:27.619Z,52.97
2022-11-09T13:59:27.646Z,53.16
2022-11-09T14:00:27.728Z,53.16
2022-11-09T14:01:27.651Z,52.97
2022-11-09T14:02:25.835Z,52.97
2022-11-09T14:03:27.702Z,53.06
2022-11-09T14:04:27.638Z,53.45
2022-11-09T14:05:26.756Z,52.97
2022-11-09T14:06:27.787Z,53.03
2022-11-09T14:07:25.853Z,53.25
2022-11-09T14:08:27.687Z,53.13
2022-11-09T14:09:27.662Z,52.94
2022-11-09T14:10:27.620Z,53.42
2022-11-09T14:11:27.668Z,53.33
2022-11-09T14:12:27.655Z,53.13
2022-11-09T14:13:25.742Z,52.94
2022-11-09T14:14:27.644Z,53.03
2022-11-09T14:15:27.647Z,53.33
2022-11-09T14:16:27.806Z,53.33
2022-11-09T14:17:27.640Z,53.13
2022-11-09T14:18:26.699Z,53.33
2022-11-09T14:19:27.640Z,53.42
2022-11-09T14:20:27.629Z,53.52
2022-11-09T14:21:27.778Z,53.03
2022-11-09T14:22:27.668Z,53.13
2022-11-09T14:23:27.719Z,53.03
2022-11-09T14:24:27.667Z,53.52
2022-11-09T14:25:27.750Z,53.13
2022-11-09T14:26:26.722Z,53.03
2022-11-09T14:27:27.238Z,53.23
2022-11-09T14:28:27.642Z,53.52
2022-11-09T14:29:28.122Z,53.03
2022-11-09T14:30:27.624Z,53.23
2022-11-09T14:31:26.757Z,52.84
2022-11-09T14:32:26.679Z,53.61
2022-11-09T14:33:25.671Z,53.61
2022-11-09T14:34:27.791Z,53.33
2022-11-09T14:35:25.688Z,53.03
2022-11-09T14:36:25.714Z,53.33
2022-11-09T14:37:25.701Z,53.42
2022-11-09T14:38:27.737Z,53.33
2022-11-09T14:39:27.024Z,53.33
2022-11-09T14:40:26.814Z,53.33
2022-11-09T14:41:26.648Z,53.13
2022-11-09T14:42:28.152Z,53.20
2022-11-09T14:43:27.178Z,53.39
2022-11-09T14:44:26.651Z,53.20
2022-11-09T14:45:25.713Z,53.39
2022-11-09T14:46:28.156Z,53.30
2022-11-09T14:47:27.171Z,53.39
2022-11-09T14:48:27.173Z,53.30
2022-11-09T14:49:27.172Z,53.01
2022-11-09T14:50:27.204Z,53.49
2022-11-09T14:51:27.157Z,53.30
2022-11-09T14:52:27.162Z,53.20
2022-11-09T14:53:28.238Z,53.30
2022-11-09T14:54:25.668Z,53.39
2022-11-09T14:55:25.638Z,53.49
2022-11-09T14:56:25.626Z,53.11
2022-11-09T14:57:25.679Z,53.39
2022-11-09T14:58:27.191Z,53.30
2022-11-09T14:59:25.641Z,53.30
2022-11-09T15:00:25.627Z,53.56
2022-11-09T15:01:25.752Z,53.56
2022-11-09T15:02:27.194Z,53.66
2022-11-09T15:03:25.622Z,53.85
2022-11-09T15:04:25.712Z,53.37
2022-11-09T15:05:25.632Z,53.47
2022-11-09T15:06:27.196Z,53.27
2022-11-09T15:07:25.639Z,53.95
2022-11-09T15:08:25.728Z,53.75
2022-11-09T15:09:25.595Z,53.95
2022-11-09T15:10:27.175Z,53.75
2022-11-09T15:11:26.688Z,53.95
2022-11-09T15:12:27.188Z,53.47
2022-11-09T15:13:25.605Z,53.85
2022-11-09T15:14:27.215Z,53.47
2022-11-09T15:15:27.193Z,53.85
2022-11-09T15:16:26.583Z,53.95
2022-11-09T15:17:27.294Z,53.47
2022-11-09T15:18:32.842Z,53.95
2022-11-09T15:19:26.571Z,54.05
2022-11-09T15:20:27.195Z,53.56
2022-11-09T15:21:27.221Z,53.95
2022-11-09T15:22:27.209Z,53.83
2022-11-09T15:23:27.228Z,54.05
2022-11-09T15:24:27.186Z,54.02
2022-11-09T15:25:27.211Z,53.44
2022-11-09T15:26:26.549Z,53.53
2022-11-09T15:27:29.214Z,53.92
2022-11-09T15:28:26.705Z,54.02
2022-11-09T15:29:26.542Z,54.02
2022-11-09T15:30:27.271Z,54.21
2022-11-09T15:31:27.195Z,53.63
2022-11-09T15:32:26.745Z,53.63
2022-11-09T15:33:27.364Z,54.11
2022-11-09T15:34:31.203Z,54.21
2022-11-09T15:35:26.641Z,53.53
2022-11-09T15:36:27.278Z,54.31
2022-11-09T15:37:27.216Z,54.11
2022-11-09T15:38:27.217Z,54.21
2022-11-09T15:39:27.271Z,53.63
2022-11-09T15:40:27.200Z,53.44
2022-11-09T15:41:27.226Z,53.92
2022-11-09T15:42:27.239Z,53.92
2022-11-09T15:43:27.225Z,53.92
2022-11-09T15:44:28.251Z,53.92
2022-11-09T15:45:27.288Z,53.99
2022-11-09T15:46:27.607Z,53.99
2022-11-09T15:47:27.258Z,53.70
2022-11-09T15:48:27.239Z,53.89
2022-11-09T15:49:27.230Z,54.09
2022-11-09T15:51:27.244Z,53.80
2022-11-09T15:52:27.443Z,53.80
2022-11-09T15:53:27.248Z,53.80
2022-11-09T15:54:25.516Z,53.80
2022-11-09T15:55:25.467Z,53.80
2022-11-09T15:56:26.461Z,53.80
2022-11-09T15:57:27.303Z,53.89
2022-11-09T15:58:27.214Z,53.80
2022-11-09T15:59:26.606Z,53.80
2022-11-09T16:00:25.516Z,53.70
2022-11-09T16:01:27.806Z,53.80
2022-11-09T16:12:46.310Z,53.77
2022-11-09T16:13:42.904Z,53.29
2022-11-09T16:14:42.865Z,53.67
2022-11-09T16:15:42.935Z,53.58
2022-11-09T16:16:42.952Z,53.58
2022-11-09T16:17:42.961Z,54.06
2022-11-09T16:18:42.898Z,53.67
2022-11-09T16:19:42.909Z,54.16
2022-11-09T16:20:42.877Z,53.87
2022-11-09T16:21:42.913Z,53.67
2022-11-09T16:22:42.894Z,53.96
2022-11-09T16:23:42.875Z,54.06
2022-11-09T16:24:42.981Z,53.96
2022-11-09T16:25:41.207Z,54.16
2022-11-09T16:26:42.885Z,53.87
2022-11-09T16:27:50.135Z,53.87
2022-11-09T16:28:41.202Z,54.25
2022-11-09T16:29:43.006Z,53.96
2022-11-09T16:30:46.381Z,53.87
2022-11-09T16:31:51.306Z,54.35
2022-11-09T16:32:41.182Z,54.25
2022-11-09T16:33:41.209Z,54.25
2022-11-09T16:34:42.399Z,53.96
2022-11-09T16:35:41.170Z,54.25
2022-11-09T16:36:47.369Z,54.35
2022-11-09T16:37:41.179Z,54.16
2022-11-09T16:38:42.430Z,54.25
2022-11-09T16:39:41.164Z,54.35
2022-11-09T16:40:41.187Z,54.35
2022-11-09T16:41:42.907Z,53.77
2022-11-09T16:42:41.152Z,54.35
2022-11-09T16:43:41.190Z,54.25
2022-11-09T16:44:42.139Z,54.35
2022-11-09T16:45:42.182Z,54.16
2022-11-09T16:46:41.129Z,53.96
2022-11-09T16:47:43.178Z,54.16
2022-11-09T16:48:42.929Z,54.16
2022-11-09T16:49:42.116Z,54.25
2022-11-09T16:51:41.244Z,54.44
2022-11-09T16:52:42.922Z,54.54
2022-11-09T16:53:42.110Z,54.25
2022-11-09T16:54:43.029Z,53.96
2022-11-09T16:55:41.431Z,54.25
2022-11-09T16:56:42.918Z,54.44
2022-11-09T16:57:42.929Z,54.44
2022-11-09T16:58:42.908Z,54.44
2022-11-09T16:59:42.974Z,53.96
2022-11-09T17:01:04.368Z,54.16
2022-11-09T17:01:41.111Z,54.25
2022-11-09T17:02:42.931Z,53.96
2022-11-09T17:03:42.967Z,54.16
2022-11-09T17:04:42.910Z,54.35
2022-11-09T17:05:42.532Z,53.87
2022-11-09T17:06:41.121Z,54.22
2022-11-09T17:07:42.704Z,54.13
2022-11-09T17:08:42.966Z,53.84
2022-11-09T17:09:42.457Z,53.94
2022-11-09T17:10:42.051Z,53.84
2022-11-09T17:11:42.928Z,54.16
2022-11-09T17:12:42.291Z,54.35
2022-11-09T17:13:42.065Z,53.96
2022-11-09T17:14:42.054Z,54.35
2022-11-09T17:15:42.919Z,54.54
2022-11-09T17:16:42.976Z,53.94
2022-11-09T17:17:42.991Z,54.42
2022-11-09T17:18:42.948Z,54.54
2022-11-09T17:19:42.950Z,53.87
2022-11-09T17:20:42.051Z,54.32
2022-11-09T17:21:42.934Z,54.44